createdAt,value
2018-10-21T00:01:22.422Z,6.00
2018-10-21T00:03:50.916Z,5.90
2018-10-21T00:06:19.235Z,5.80
2018-10-21T00:08:47.544Z,5.90
2018-10-21T00:11:17.065Z,5.90
2018-10-21T00:13:45.370Z,5.70
2018-10-21T00:16:13.706Z,5.60
2018-10-21T00:18:42.009Z,5.80
2018-10-21T00:21:10.368Z,5.90
2018-10-21T00:23:39.558Z,5.80
2018-10-21T00:26:07.839Z,5.80
2018-10-21T00:28:36.158Z,5.70
2018-10-21T00:31:04.554Z,5.80
2018-10-21T00:33:32.884Z,5.70
2018-10-21T00:36:01.174Z,5.70
2018-10-21T00:38:29.484Z,5.80
2018-10-21T00:40:57.808Z,5.70
2018-10-21T00:43:26.802Z,5.50
2018-10-21T00:45:55.102Z,5.50
2018-10-21T00:48:23.476Z,5.60
2018-10-21T00:50:51.736Z,5.60
2018-10-21T00:53:20.072Z,5.60
2018-10-21T00:55:48.380Z,5.50
2018-10-21T00:58:16.718Z,5.50
2018-10-21T01:00:45.032Z,5.40
2018-10-21T01:03:13.434Z,5.30
2018-10-21T01:05:41.661Z,5.10
2018-10-21T01:08:10.625Z,5.00
2018-10-21T01:10:38.924Z,5.00
2018-10-21T01:13:07.612Z,4.90
2018-10-21T01:15:35.893Z,5.00
2018-10-21T01:18:04.258Z,4.90
2018-10-21T01:20:32.557Z,4.90
2018-10-21T01:23:00.905Z,5.00
2018-10-21T01:25:29.241Z,5.00
2018-10-21T01:27:57.542Z,5.00
2018-10-21T01:30:25.857Z,5.10
2018-10-21T01:32:54.227Z,4.90
2018-10-21T01:35:22.504Z,4.90
2018-10-21T01:37:50.907Z,4.80
2018-10-21T01:40:31.812Z,4.90
2018-10-21T01:43:00.284Z,4.80
2018-10-21T01:45:28.601Z,4.80
2018-10-21T01:47:58.360Z,4.90
2018-10-21T01:50:26.737Z,5.00
2018-10-21T01:52:56.160Z,5.00
2018-10-21T01:55:24.652Z,5.10
2018-10-21T01:57:54.101Z,5.10
2018-10-21T02:00:22.764Z,5.00
2018-10-21T02:02:51.072Z,5.00
2018-10-21T02:05:19.396Z,5.10
2018-10-21T02:07:48.613Z,5.10
2018-10-21T02:10:16.953Z,5.10
2018-10-21T02:12:45.255Z,5.20
2018-10-21T02:15:14.525Z,5.20
2018-10-21T02:17:42.910Z,5.20
2018-10-21T02:20:12.417Z,5.10
2018-10-21T02:22:41.485Z,5.00
2018-10-21T02:25:09.817Z,5.00
2018-10-21T02:27:38.885Z,5.00
2018-10-21T02:30:10.208Z,5.00
2018-10-21T02:32:38.573Z,4.90
2018-10-21T02:35:07.622Z,4.90
2018-10-21T02:37:36.313Z,4.90
2018-10-21T02:40:05.095Z,4.90
2018-10-21T02:42:33.395Z,4.90
2018-10-21T02:45:01.750Z,4.90
2018-10-21T02:47:30.062Z,4.80
2018-10-21T02:49:58.712Z,4.70
2018-10-21T02:52:27.018Z,4.80
2018-10-21T02:54:55.345Z,4.70
2018-10-21T02:57:23.677Z,4.60
2018-10-21T02:59:52.046Z,4.70
2018-10-21T03:02:20.373Z,4.60
2018-10-21T03:04:48.685Z,4.60
2018-10-21T03:07:16.977Z,4.60
2018-10-21T03:09:45.277Z,4.70
2018-10-21T03:12:13.561Z,4.70
2018-10-21T03:14:41.901Z,4.60
2018-10-21T03:17:10.197Z,4.50
2018-10-21T03:19:38.545Z,4.60
2018-10-21T03:22:06.893Z,4.90
2018-10-21T03:24:35.200Z,5.00
2018-10-21T03:27:03.534Z,5.10
2018-10-21T03:29:31.812Z,5.00
2018-10-21T03:32:00.105Z,5.00
2018-10-21T03:34:28.877Z,4.90
2018-10-21T03:36:57.212Z,4.90
2018-10-21T03:39:25.517Z,5.10
2018-10-21T03:41:53.854Z,5.10
2018-10-21T03:44:22.157Z,5.10
2018-10-21T03:46:51.181Z,5.20
2018-10-21T03:49:19.481Z,5.20
2018-10-21T03:51:47.779Z,5.20
2018-10-21T03:54:16.090Z,5.20
2018-10-21T03:56:44.454Z,5.20
2018-10-21T03:59:12.764Z,5.10
2018-10-21T04:01:41.070Z,5.10
2018-10-21T04:04:09.586Z,5.10
2018-10-21T04:06:37.860Z,5.20
2018-10-21T04:09:07.484Z,5.10
2018-10-21T04:11:35.786Z,5.10
2018-10-21T04:14:04.460Z,5.10
2018-10-21T04:16:32.751Z,5.10
2018-10-21T04:19:01.060Z,5.10
2018-10-21T04:21:29.368Z,5.10
2018-10-21T04:23:58.037Z,5.10
2018-10-21T04:26:26.440Z,5.00
2018-10-21T04:28:55.794Z,5.10
2018-10-21T04:31:24.275Z,5.10
2018-10-21T04:33:52.641Z,5.10
2018-10-21T04:36:27.413Z,5.20
2018-10-21T04:40:09.002Z,5.20
2018-10-21T04:42:37.308Z,5.10
2018-10-21T04:45:06.398Z,5.10
2018-10-21T04:47:34.789Z,5.10
2018-10-21T04:50:03.388Z,5.00
2018-10-21T04:52:32.601Z,5.10
2018-10-21T04:55:06.738Z,5.10
2018-10-21T04:57:35.806Z,5.20
2018-10-21T05:00:04.958Z,5.20
2018-10-21T05:02:33.748Z,5.20
2018-10-21T05:05:02.073Z,5.20
2018-10-21T05:07:30.469Z,5.20
2018-10-21T05:09:59.239Z,5.20
2018-10-21T05:12:27.516Z,5.20
2018-10-21T05:14:55.814Z,5.10
2018-10-21T05:17:24.112Z,5.20
2018-10-21T05:19:52.396Z,5.20
2018-10-21T05:22:20.694Z,5.10
2018-10-21T05:24:49.008Z,5.10
2018-10-21T05:27:17.336Z,5.10
2018-10-21T05:29:45.633Z,5.00
2018-10-21T05:32:14.549Z,5.00
2018-10-21T05:34:42.844Z,5.00
2018-10-21T05:37:11.148Z,4.90
2018-10-21T05:39:39.466Z,5.00
2018-10-21T05:42:07.763Z,5.00
2018-10-21T05:44:36.702Z,5.00
2018-10-21T05:47:05.362Z,5.00
2018-10-21T05:49:33.671Z,4.90
2018-10-21T05:52:02.019Z,4.90
2018-10-21T05:54:30.317Z,4.80
2018-10-21T05:56:59.571Z,4.90
2018-10-21T05:59:28.552Z,4.90
2018-10-21T06:01:56.876Z,4.90
2018-10-21T06:04:25.180Z,5.00
2018-10-21T06:06:53.452Z,4.70
2018-10-21T06:09:22.446Z,4.60
2018-10-21T06:11:50.749Z,4.50
2018-10-21T06:14:19.060Z,4.60
2018-10-21T06:16:51.708Z,4.70
2018-10-21T06:19:28.364Z,4.80
2018-10-21T06:21:56.711Z,4.80
2018-10-21T06:24:25.257Z,4.80
2018-10-21T06:26:54.257Z,4.90
2018-10-21T06:29:22.625Z,4.90
2018-10-21T06:31:50.927Z,4.90
2018-10-21T06:34:19.956Z,5.00
2018-10-21T06:36:48.342Z,4.90
2018-10-21T06:39:16.630Z,5.00
2018-10-21T06:41:44.880Z,5.10
2018-10-21T06:44:13.197Z,5.10
2018-10-21T06:46:41.496Z,5.10
2018-10-21T06:49:09.852Z,5.20
2018-10-21T06:51:38.112Z,5.20
2018-10-21T06:54:06.472Z,5.20
2018-10-21T06:56:35.062Z,5.40
2018-10-21T06:59:03.153Z,5.20
2018-10-21T07:01:31.645Z,5.40
2018-10-21T07:04:00.006Z,5.60
2018-10-21T07:06:29.048Z,5.80
2018-10-21T07:09:11.886Z,5.90
2018-10-21T07:11:40.409Z,5.90
2018-10-21T07:14:08.932Z,5.70
2018-10-21T07:16:38.284Z,5.70
2018-10-21T07:19:06.457Z,5.70
2018-10-21T07:21:34.772Z,5.80
2018-10-21T07:24:03.089Z,5.90
2018-10-21T07:26:31.510Z,5.90
2018-10-21T07:29:01.030Z,5.90
2018-10-21T07:31:29.845Z,6.00
2018-10-21T07:33:58.865Z,6.10
2018-10-21T07:36:27.382Z,6.20
2018-10-21T07:38:55.748Z,6.30
2018-10-21T07:41:25.016Z,6.30
2018-10-21T07:43:53.376Z,6.40
2018-10-21T07:46:21.732Z,6.50
2018-10-21T07:48:51.212Z,6.50
2018-10-21T07:51:19.544Z,6.60
2018-10-21T07:53:48.977Z,6.70
2018-10-21T07:56:17.764Z,6.70
2018-10-21T07:58:46.073Z,6.80
2018-10-21T08:01:15.132Z,6.80
2018-10-21T08:03:44.122Z,6.90
2018-10-21T08:06:25.542Z,7.00
2018-10-21T08:08:53.904Z,7.00
2018-10-21T08:11:23.264Z,7.10
2018-10-21T08:13:51.584Z,7.20
2018-10-21T08:16:20.749Z,7.30
2018-10-21T08:18:49.533Z,7.40
2018-10-21T08:21:17.912Z,7.50
2018-10-21T08:23:46.443Z,7.50
2018-10-21T08:26:15.049Z,7.60
2018-10-21T08:28:43.365Z,7.80
2018-10-21T08:31:11.747Z,7.90
2018-10-21T08:33:40.065Z,7.80
2018-10-21T08:36:08.593Z,7.90
2018-10-21T08:38:37.053Z,8.10
2018-10-21T08:41:05.536Z,8.20
2018-10-21T08:43:33.859Z,8.30
2018-10-21T08:46:02.551Z,8.40
2018-10-21T08:48:31.065Z,8.50
2018-10-21T08:50:59.391Z,8.60
2018-10-21T08:53:28.350Z,8.80
2018-10-21T08:55:56.713Z,8.80
2018-10-21T08:58:25.043Z,8.90
2018-10-21T09:00:53.367Z,9.00
2018-10-21T09:03:21.680Z,9.00
2018-10-21T09:05:49.981Z,9.10
2018-10-21T09:08:18.315Z,9.30
2018-10-21T09:10:46.867Z,9.40
2018-10-21T09:13:15.473Z,9.60
2018-10-21T09:15:44.862Z,9.70
2018-10-21T09:18:13.218Z,9.80
2018-10-21T09:20:41.512Z,9.90
2018-10-21T09:23:09.856Z,10.00
2018-10-21T09:25:38.173Z,10.20
2018-10-21T09:28:07.187Z,10.30
2018-10-21T09:30:35.477Z,10.50
2018-10-21T09:33:04.446Z,10.70
2018-10-21T09:35:33.914Z,11.00
2018-10-21T09:38:02.245Z,11.30
2018-10-21T09:40:31.460Z,11.50
2018-10-21T09:43:01.556Z,11.80
2018-10-21T09:45:29.933Z,11.90
2018-10-21T09:47:58.318Z,12.10
2018-10-21T09:50:27.614Z,12.50
2018-10-21T09:52:56.977Z,12.60
2018-10-21T09:55:25.397Z,12.70
2018-10-21T09:57:54.314Z,13.00
2018-10-21T10:00:27.906Z,13.10
2018-10-21T10:03:03.093Z,13.40
2018-10-21T10:05:31.456Z,13.60
2018-10-21T10:07:59.781Z,13.80
2018-10-21T10:10:28.134Z,14.10
2018-10-21T10:12:56.481Z,14.30
2018-10-21T10:15:24.873Z,14.50
2018-10-21T10:17:53.285Z,14.80
2018-10-21T10:20:21.684Z,14.90
2018-10-21T10:22:50.009Z,15.20
2018-10-21T10:25:18.441Z,15.50
2018-10-21T10:27:46.650Z,16.00
2018-10-21T10:30:15.033Z,16.10
2018-10-21T10:32:43.937Z,16.40
2018-10-21T10:35:13.145Z,16.60
2018-10-21T10:37:41.656Z,16.80
2018-10-21T10:40:11.245Z,17.10
2018-10-21T10:42:39.572Z,17.30
2018-10-21T10:45:08.445Z,17.40
2018-10-21T10:47:37.196Z,17.40
2018-10-21T10:50:06.585Z,17.40
2018-10-21T10:52:34.916Z,17.60
2018-10-21T10:55:03.308Z,17.90
2018-10-21T10:57:31.712Z,18.00
2018-10-21T11:00:00.678Z,18.10
2018-10-21T11:02:28.779Z,18.10
2018-10-21T11:04:58.069Z,18.20
2018-10-21T11:07:27.460Z,18.30
2018-10-21T11:09:55.842Z,18.60
2018-10-21T11:12:24.117Z,18.60
2018-10-21T11:14:52.424Z,18.60
2018-10-21T11:17:21.983Z,18.50
2018-10-21T11:19:51.314Z,18.70
2018-10-21T11:22:19.633Z,18.80
2018-10-21T11:24:49.349Z,18.90
2018-10-21T11:27:18.413Z,19.00
2018-10-21T11:29:47.984Z,19.10
2018-10-21T11:32:18.249Z,19.00
2018-10-21T11:34:46.645Z,19.40
2018-10-21T11:37:15.043Z,19.70
2018-10-21T11:39:43.280Z,19.70
2018-10-21T11:42:11.638Z,19.60
2018-10-21T11:44:39.990Z,19.50
2018-10-21T11:47:08.629Z,19.60
2018-10-21T11:49:36.934Z,19.90
2018-10-21T11:52:05.406Z,20.10
2018-10-21T11:54:33.710Z,20.20
2018-10-21T11:57:02.017Z,20.10
2018-10-21T11:59:30.358Z,20.30
2018-10-21T12:01:58.704Z,20.70
2018-10-21T12:04:27.012Z,20.40
2018-10-21T12:06:55.380Z,20.90
2018-10-21T12:09:23.669Z,21.00
2018-10-21T12:11:51.988Z,20.80
2018-10-21T12:14:20.277Z,21.00
2018-10-21T12:16:48.585Z,21.00
2018-10-21T12:19:17.827Z,21.10
2018-10-21T12:21:46.069Z,21.50
2018-10-21T12:24:14.408Z,21.80
2018-10-21T12:26:42.701Z,21.90
2018-10-21T12:29:11.037Z,22.40
2018-10-21T12:31:39.868Z,22.40
2018-10-21T12:34:08.435Z,22.10
2018-10-21T12:36:36.709Z,21.70
2018-10-21T12:39:08.537Z,21.80
2018-10-21T12:41:36.823Z,22.70
2018-10-21T12:44:05.628Z,22.20
2018-10-21T12:46:33.929Z,22.30
2018-10-21T12:49:02.484Z,22.60
2018-10-21T12:51:30.777Z,23.00
2018-10-21T12:53:59.644Z,22.70
2018-10-21T12:56:29.852Z,22.60
2018-10-21T12:58:58.148Z,22.40
2018-10-21T13:01:27.290Z,22.50
2018-10-21T13:03:55.614Z,22.50
2018-10-21T13:06:23.963Z,22.40
2018-10-21T13:08:52.312Z,22.70
2018-10-21T13:11:20.597Z,22.70
2018-10-21T13:13:49.031Z,22.80
2018-10-21T13:16:17.438Z,22.70
2018-10-21T13:18:45.693Z,22.60
2018-10-21T13:21:14.009Z,23.10
2018-10-21T13:23:42.488Z,23.10
2018-10-21T13:26:10.837Z,23.30
2018-10-21T13:28:39.149Z,23.50
2018-10-21T13:31:07.540Z,23.00
2018-10-21T13:33:35.801Z,23.40
2018-10-21T13:36:05.184Z,23.30
2018-10-21T13:38:34.131Z,23.30
2018-10-21T13:41:02.413Z,23.00
2018-10-21T13:43:30.719Z,22.90
2018-10-21T13:45:59.059Z,23.40
2018-10-21T13:48:27.330Z,23.40
2018-10-21T13:50:55.623Z,23.10
2018-10-21T13:53:23.983Z,23.40
2018-10-21T13:55:52.274Z,23.30
2018-10-21T13:58:20.586Z,23.50
2018-10-21T14:00:48.973Z,23.50
2018-10-21T14:03:17.230Z,23.50
2018-10-21T14:05:45.540Z,23.30
2018-10-21T14:08:13.857Z,23.50
2018-10-21T14:10:42.186Z,23.60
2018-10-21T14:13:10.525Z,23.90
2018-10-21T14:15:38.860Z,24.00
2018-10-21T14:18:07.168Z,24.80
2018-10-21T14:20:35.569Z,24.30
2018-10-21T14:23:03.903Z,23.70
2018-10-21T14:25:32.210Z,23.60
2018-10-21T14:28:00.732Z,23.30
2018-10-21T14:30:29.642Z,23.70
2018-10-21T14:32:58.003Z,23.20
2018-10-21T14:35:26.647Z,22.70
2018-10-21T14:37:55.416Z,22.80
2018-10-21T14:40:23.772Z,23.00
2018-10-21T14:42:52.214Z,22.90
2018-10-21T14:45:20.864Z,22.70
2018-10-21T14:47:49.152Z,22.30
2018-10-21T14:50:17.457Z,22.10
2018-10-21T14:52:45.765Z,22.30
2018-10-21T14:55:14.103Z,22.00
2018-10-21T14:57:42.452Z,21.20
2018-10-21T15:00:12.259Z,20.70
2018-10-21T15:02:40.456Z,20.70
2018-10-21T15:05:10.689Z,20.10
2018-10-21T15:07:39.810Z,20.00
2018-10-21T15:10:11.053Z,19.60
2018-10-21T15:12:39.475Z,19.60
2018-10-21T15:15:09.432Z,19.40
2018-10-21T15:17:37.972Z,19.10
2018-10-21T15:20:07.168Z,19.00
2018-10-21T15:22:35.437Z,18.90
2018-10-21T15:25:03.841Z,18.70
2018-10-21T15:27:32.365Z,18.50
2018-10-21T15:30:01.365Z,18.20
2018-10-21T15:32:29.716Z,18.10
2018-10-21T15:34:58.026Z,18.20
2018-10-21T15:37:26.320Z,18.10
2018-10-21T15:39:55.056Z,17.90
2018-10-21T15:42:23.349Z,17.80
2018-10-21T15:44:52.725Z,17.80
2018-10-21T15:47:21.517Z,17.70
2018-10-21T15:49:50.800Z,17.60
2018-10-21T15:52:20.367Z,17.70
2018-10-21T15:54:49.784Z,17.80
2018-10-21T15:57:18.899Z,17.80
2018-10-21T15:59:47.292Z,17.70
2018-10-21T16:02:16.657Z,17.60
2018-10-21T16:04:44.925Z,17.50
2018-10-21T16:07:13.385Z,17.30
2018-10-21T16:09:41.701Z,17.20
2018-10-21T16:12:10.693Z,17.00
2018-10-21T16:14:39.015Z,16.80
2018-10-21T16:17:07.362Z,16.70
2018-10-21T16:19:35.664Z,16.60
2018-10-21T16:22:04.003Z,16.40
2018-10-21T16:24:47.389Z,16.20
2018-10-21T16:27:16.204Z,16.00
2018-10-21T16:29:44.745Z,15.80
2018-10-21T16:32:13.669Z,15.60
2018-10-21T16:34:42.393Z,15.40
2018-10-21T16:37:10.743Z,15.40
2018-10-21T16:39:39.083Z,15.40
2018-10-21T16:42:08.026Z,15.40
2018-10-21T16:44:36.331Z,15.30
2018-10-21T16:47:04.771Z,15.10
2018-10-21T16:49:33.070Z,15.00
2018-10-21T16:52:01.361Z,14.80
2018-10-21T16:54:29.722Z,14.70
2018-10-21T16:56:58.161Z,14.60
2018-10-21T16:59:26.559Z,14.60
2018-10-21T17:01:54.822Z,14.50
2018-10-21T17:04:23.133Z,14.30
2018-10-21T17:06:51.445Z,14.10
2018-10-21T17:09:19.871Z,14.00
2018-10-21T17:11:48.091Z,13.70
2018-10-21T17:14:17.365Z,13.50
2018-10-21T17:16:46.517Z,13.30
2018-10-21T17:19:14.844Z,13.30
2018-10-21T17:21:43.164Z,13.30
2018-10-21T17:24:11.548Z,13.20
2018-10-21T17:26:39.845Z,13.30
2018-10-21T17:29:08.163Z,13.20
2018-10-21T17:31:36.455Z,13.00
2018-10-21T17:34:04.997Z,12.70
2018-10-21T17:36:33.258Z,12.50
2018-10-21T17:39:03.395Z,12.40
2018-10-21T17:41:31.726Z,12.30
2018-10-21T17:44:00.037Z,12.40
2018-10-21T17:46:28.374Z,12.30
2018-10-21T17:48:56.884Z,12.40
2018-10-21T17:51:25.125Z,12.30
2018-10-21T17:53:53.448Z,12.40
2018-10-21T17:56:21.800Z,12.20
2018-10-21T17:58:50.185Z,12.00
2018-10-21T18:01:18.524Z,11.80
2018-10-21T18:03:46.884Z,11.70
2018-10-21T18:06:15.177Z,11.80
2018-10-21T18:08:43.500Z,11.60
2018-10-21T18:11:11.887Z,11.50
2018-10-21T18:13:40.207Z,11.50
2018-10-21T18:16:08.557Z,11.60
2018-10-21T18:18:36.841Z,11.50
2018-10-21T18:21:05.332Z,11.40
2018-10-21T18:23:33.679Z,11.40
2018-10-21T18:26:02.127Z,11.10
2018-10-21T18:28:30.433Z,11.20
2018-10-21T18:30:59.447Z,11.20
2018-10-21T18:33:27.783Z,11.00
2018-10-21T18:35:57.046Z,10.90
2018-10-21T18:38:25.838Z,10.80
2018-10-21T18:40:55.596Z,10.90
2018-10-21T18:43:23.891Z,10.80
2018-10-21T18:45:53.216Z,10.70
2018-10-21T18:48:22.513Z,10.60
2018-10-21T18:50:50.840Z,10.40
2018-10-21T18:53:20.033Z,10.50
2018-10-21T18:55:48.465Z,10.50
2018-10-21T18:58:16.826Z,10.50
2018-10-21T19:00:45.139Z,10.50
2018-10-21T19:03:13.464Z,10.30
2018-10-21T19:05:47.090Z,10.20
2018-10-21T19:08:15.464Z,10.30
2018-10-21T19:10:43.856Z,10.30
2018-10-21T19:13:12.730Z,10.30
2018-10-21T19:15:41.032Z,10.20
2018-10-21T19:18:09.370Z,10.00
2018-10-21T19:20:37.680Z,10.00
2018-10-21T19:23:06.284Z,9.80
2018-10-21T19:25:34.592Z,9.60
2018-10-21T19:28:03.211Z,9.60
2018-10-21T19:30:32.294Z,9.60
2018-10-21T19:33:00.630Z,9.50
2018-10-21T19:35:28.981Z,9.60
2018-10-21T19:37:57.329Z,9.50
2018-10-21T19:40:25.646Z,9.50
2018-10-21T19:42:54.532Z,9.40
2018-10-21T19:45:22.886Z,9.50
2018-10-21T19:47:51.326Z,9.60
2018-10-21T19:50:19.697Z,9.50
2018-10-21T19:52:48.007Z,9.30
2018-10-21T19:55:16.501Z,9.30
2018-10-21T19:57:44.762Z,9.40
2018-10-21T20:00:15.289Z,9.40
2018-10-21T20:02:44.090Z,9.30
2018-10-21T20:05:13.316Z,9.20
2018-10-21T20:07:41.745Z,9.00
2018-10-21T20:10:12.389Z,9.00
2018-10-21T20:12:40.689Z,8.90
2018-10-21T20:15:10.098Z,8.70
2018-10-21T20:17:38.749Z,8.80
2018-10-21T20:20:07.703Z,8.70
2018-10-21T20:22:36.125Z,8.80
2018-10-21T20:25:05.937Z,8.80
2018-10-21T20:27:34.297Z,8.80
2018-10-21T20:30:02.847Z,8.80
2018-10-21T20:32:32.084Z,8.80
2018-10-21T20:35:00.912Z,8.80
2018-10-21T20:37:30.671Z,8.80
2018-10-21T20:39:59.567Z,8.70
2018-10-21T20:42:27.895Z,8.60
2018-10-21T20:44:57.121Z,8.50
2018-10-21T20:47:25.990Z,8.50
2018-10-21T20:49:54.433Z,8.60
2018-10-21T20:52:23.241Z,8.60
2018-10-21T20:54:51.612Z,8.50
2018-10-21T20:57:19.944Z,8.50
2018-10-21T20:59:48.618Z,8.40
2018-10-21T21:02:17.156Z,8.40
2018-10-21T21:04:46.608Z,7.90
2018-10-21T21:07:15.605Z,6.50
2018-10-21T21:09:44.132Z,6.30
2018-10-21T21:12:12.519Z,6.50
2018-10-21T21:14:40.798Z,6.80
2018-10-21T21:17:11.789Z,6.90
2018-10-21T21:19:44.981Z,7.00
2018-10-21T21:22:15.324Z,7.10
2018-10-21T21:24:43.637Z,7.20
2018-10-21T21:27:12.899Z,7.40
2018-10-21T21:29:42.178Z,7.50
2018-10-21T21:32:11.672Z,7.40
2018-10-21T21:34:41.162Z,7.50
2018-10-21T21:37:10.179Z,7.70
2018-10-21T21:39:40.390Z,7.70
2018-10-21T21:42:08.954Z,7.70
2018-10-21T21:44:37.242Z,7.70
2018-10-21T21:47:06.078Z,7.60
2018-10-21T21:49:34.473Z,7.50
2018-10-21T21:52:02.951Z,7.50
2018-10-21T21:54:31.290Z,7.50
2018-10-21T21:57:00.501Z,7.50
2018-10-21T21:59:29.670Z,7.50
2018-10-21T22:01:58.144Z,7.60
2018-10-21T22:04:26.501Z,7.60
2018-10-21T22:06:54.833Z,7.60
2018-10-21T22:09:23.709Z,7.50
2018-10-21T22:11:52.053Z,7.40
2018-10-21T22:14:20.353Z,7.40
2018-10-21T22:16:48.652Z,7.30
2018-10-21T22:19:16.944Z,7.10
2018-10-21T22:21:45.274Z,7.00
2018-10-21T22:24:13.613Z,6.80
2018-10-21T22:26:41.925Z,6.70
2018-10-21T22:29:10.366Z,6.80
2018-10-21T22:31:38.701Z,7.00
2018-10-21T22:34:07.105Z,7.20
2018-10-21T22:36:35.613Z,7.20
2018-10-21T22:39:04.916Z,7.00
2018-10-21T22:41:33.416Z,7.10
2018-10-21T22:44:01.885Z,7.20
2018-10-21T22:46:30.404Z,7.00
2018-10-21T22:48:58.773Z,7.10
2018-10-21T22:51:27.109Z,7.30
2018-10-21T22:53:55.482Z,7.40
2018-10-21T22:56:23.839Z,7.10
2018-10-21T22:58:52.235Z,7.20
2018-10-21T23:01:20.550Z,7.20
2018-10-21T23:03:49.046Z,7.10
2018-10-21T23:06:17.400Z,7.00
2018-10-21T23:08:45.650Z,6.90
2018-10-21T23:11:13.993Z,6.90
2018-10-21T23:13:42.284Z,6.90
2018-10-21T23:16:10.683Z,6.80
2018-10-21T23:18:39.023Z,6.90
2018-10-21T23:21:07.255Z,6.90
2018-10-21T23:23:35.626Z,6.90
2018-10-21T23:26:03.956Z,6.80
2018-10-21T23:28:32.289Z,6.80
2018-10-21T23:31:00.590Z,6.80
2018-10-21T23:33:28.911Z,6.50
2018-10-21T23:35:57.323Z,6.40
2018-10-21T23:38:25.649Z,6.50
2018-10-21T23:40:53.956Z,6.40
2018-10-21T23:43:22.266Z,6.60
2018-10-21T23:45:50.584Z,6.60
2018-10-21T23:48:18.972Z,6.60
2018-10-21T23:50:47.484Z,6.70
2018-10-21T23:53:15.779Z,6.70
2018-10-21T23:55:44.079Z,6.60
2018-10-21T23:58:12.455Z,6.70
